sensor_id;sensor_type;location;lat;lon;timestamp;temperature;humidity
73322;DHT22;61549;37.044;22.128;2022-12-11T00:02:00;20.80;68.30
73322;DHT22;61549;37.044;22.128;2022-12-11T00:04:26;20.90;67.10
73322;DHT22;61549;37.044;22.128;2022-12-11T00:06:52;20.90;68.30
73322;DHT22;61549;37.044;22.128;2022-12-11T00:09:19;20.80;66.00
73322;DHT22;61549;37.044;22.128;2022-12-11T00:11:46;20.80;64.50
73322;DHT22;61549;37.044;22.128;2022-12-11T00:14:12;20.70;65.20
73322;DHT22;61549;37.044;22.128;2022-12-11T00:16:39;20.80;66.30
73322;DHT22;61549;37.044;22.128;2022-12-11T00:19:05;20.90;65.50
73322;DHT22;61549;37.044;22.128;2022-12-11T00:21:33;20.70;64.50
73322;DHT22;61549;37.044;22.128;2022-12-11T00:23:59;20.80;66.30
73322;DHT22;61549;37.044;22.128;2022-12-11T00:26:25;20.90;66.90
73322;DHT22;61549;37.044;22.128;2022-12-11T00:28:53;20.90;66.50
73322;DHT22;61549;37.044;22.128;2022-12-11T00:31:20;20.80;66.70
73322;DHT22;61549;37.044;22.128;2022-12-11T00:33:47;20.60;67.70
73322;DHT22;61549;37.044;22.128;2022-12-11T00:36:16;20.60;68.20
73322;DHT22;61549;37.044;22.128;2022-12-11T00:38:52;20.60;68.50
73322;DHT22;61549;37.044;22.128;2022-12-11T00:41:19;20.40;67.80
73322;DHT22;61549;37.044;22.128;2022-12-11T00:43:45;20.30;70.10
73322;DHT22;61549;37.044;22.128;2022-12-11T00:46:11;20.10;70.90
73322;DHT22;61549;37.044;22.128;2022-12-11T00:48:37;20.20;69.80
73322;DHT22;61549;37.044;22.128;2022-12-11T00:51:04;20.30;70.10
73322;DHT22;61549;37.044;22.128;2022-12-11T00:53:30;20.20;70.00
73322;DHT22;61549;37.044;22.128;2022-12-11T00:55:56;20.10;70.80
73322;DHT22;61549;37.044;22.128;2022-12-11T00:58:22;20.00;71.70
73322;DHT22;61549;37.044;22.128;2022-12-11T01:00:48;20.10;72.00
73322;DHT22;61549;37.044;22.128;2022-12-11T01:03:15;20.10;71.30
73322;DHT22;61549;37.044;22.128;2022-12-11T01:05:49;20.10;72.00
73322;DHT22;61549;37.044;22.128;2022-12-11T01:08:15;20.00;72.90
73322;DHT22;61549;37.044;22.128;2022-12-11T01:10:41;20.00;72.20
73322;DHT22;61549;37.044;22.128;2022-12-11T01:13:07;19.90;71.00
73322;DHT22;61549;37.044;22.128;2022-12-11T01:15:43;19.80;71.60
73322;DHT22;61549;37.044;22.128;2022-12-11T01:18:11;19.80;71.30
73322;DHT22;61549;37.044;22.128;2022-12-11T01:20:39;20.00;70.60
73322;DHT22;61549;37.044;22.128;2022-12-11T01:23:05;20.10;70.80
73322;DHT22;61549;37.044;22.128;2022-12-11T01:25:31;19.90;71.60
73322;DHT22;61549;37.044;22.128;2022-12-11T01:27:59;19.90;71.70
73322;DHT22;61549;37.044;22.128;2022-12-11T01:30:25;20.00;71.40
73322;DHT22;61549;37.044;22.128;2022-12-11T01:32:51;19.90;71.20
73322;DHT22;61549;37.044;22.128;2022-12-11T01:35:18;19.90;71.70
73322;DHT22;61549;37.044;22.128;2022-12-11T01:37:47;19.70;73.40
73322;DHT22;61549;37.044;22.128;2022-12-11T01:40:15;19.60;74.60
73322;DHT22;61549;37.044;22.128;2022-12-11T01:42:43;19.60;74.60
73322;DHT22;61549;37.044;22.128;2022-12-11T01:45:32;19.70;74.80
73322;DHT22;61549;37.044;22.128;2022-12-11T01:48:20;19.60;74.90
73322;DHT22;61549;37.044;22.128;2022-12-11T01:50:48;19.60;75.80
73322;DHT22;61549;37.044;22.128;2022-12-11T01:53:27;19.40;76.60
73322;DHT22;61549;37.044;22.128;2022-12-11T01:55:56;19.60;76.70
73322;DHT22;61549;37.044;22.128;2022-12-11T01:58:30;19.70;77.00
73322;DHT22;61549;37.044;22.128;2022-12-11T02:00:57;19.70;76.40
73322;DHT22;61549;37.044;22.128;2022-12-11T02:03:24;19.70;78.00
73322;DHT22;61549;37.044;22.128;2022-12-11T02:05:50;19.70;78.20
73322;DHT22;61549;37.044;22.128;2022-12-11T02:08:17;19.70;78.10
73322;DHT22;61549;37.044;22.128;2022-12-11T02:13:42;19.90;77.30
73322;DHT22;61549;37.044;22.128;2022-12-11T02:17:16;20.10;77.10
73322;DHT22;61549;37.044;22.128;2022-12-11T02:22:10;19.80;76.30
73322;DHT22;61549;37.044;22.128;2022-12-11T02:27:52;19.90;76.40
73322;DHT22;61549;37.044;22.128;2022-12-11T02:30:21;19.80;76.10
73322;DHT22;61549;37.044;22.128;2022-12-11T02:32:56;19.90;76.10
73322;DHT22;61549;37.044;22.128;2022-12-11T02:35:36;19.80;76.30
73322;DHT22;61549;37.044;22.128;2022-12-11T02:38:18;19.90;76.70
73322;DHT22;61549;37.044;22.128;2022-12-11T02:40:47;19.90;76.70
73322;DHT22;61549;37.044;22.128;2022-12-11T02:43:15;19.90;77.50
73322;DHT22;61549;37.044;22.128;2022-12-11T02:45:43;19.80;77.90
73322;DHT22;61549;37.044;22.128;2022-12-11T02:48:11;19.80;78.20
73322;DHT22;61549;37.044;22.128;2022-12-11T02:50:42;19.90;78.70
73322;DHT22;61549;37.044;22.128;2022-12-11T02:53:10;19.60;82.20
73322;DHT22;61549;37.044;22.128;2022-12-11T02:55:38;19.30;84.90
73322;DHT22;61549;37.044;22.128;2022-12-11T02:58:17;19.10;85.90
73322;DHT22;61549;37.044;22.128;2022-12-11T03:00:44;19.30;85.70
73322;DHT22;61549;37.044;22.128;2022-12-11T03:03:11;19.60;84.60
73322;DHT22;61549;37.044;22.128;2022-12-11T03:05:38;19.90;83.40
73322;DHT22;61549;37.044;22.128;2022-12-11T03:08:04;19.70;82.90
73322;DHT22;61549;37.044;22.128;2022-12-11T03:10:30;19.50;84.40
73322;DHT22;61549;37.044;22.128;2022-12-11T03:12:57;19.40;86.70
73322;DHT22;61549;37.044;22.128;2022-12-11T03:15:38;19.20;87.20
73322;DHT22;61549;37.044;22.128;2022-12-11T03:18:24;19.00;88.90
73322;DHT22;61549;37.044;22.128;2022-12-11T03:20:56;18.90;90.40
73322;DHT22;61549;37.044;22.128;2022-12-11T03:23:49;18.90;90.50
73322;DHT22;61549;37.044;22.128;2022-12-11T03:26:19;19.00;90.00
73322;DHT22;61549;37.044;22.128;2022-12-11T03:29:04;18.80;89.80
73322;DHT22;61549;37.044;22.128;2022-12-11T03:31:40;18.80;89.70
73322;DHT22;61549;37.044;22.128;2022-12-11T03:34:15;18.90;90.20
73322;DHT22;61549;37.044;22.128;2022-12-11T03:36:43;19.00;90.50
73322;DHT22;61549;37.044;22.128;2022-12-11T03:39:14;19.20;91.00
73322;DHT22;61549;37.044;22.128;2022-12-11T03:41:43;19.40;90.40
73322;DHT22;61549;37.044;22.128;2022-12-11T03:44:11;19.40;89.10
73322;DHT22;61549;37.044;22.128;2022-12-11T03:46:39;19.40;88.10
73322;DHT22;61549;37.044;22.128;2022-12-11T03:49:15;19.40;88.30
73322;DHT22;61549;37.044;22.128;2022-12-11T03:51:43;19.30;89.50
73322;DHT22;61549;37.044;22.128;2022-12-11T03:54:10;19.10;87.10
73322;DHT22;61549;37.044;22.128;2022-12-11T03:56:37;19.10;83.40
73322;DHT22;61549;37.044;22.128;2022-12-11T03:59:04;19.10;77.00
73322;DHT22;61549;37.044;22.128;2022-12-11T04:01:30;19.00;75.90
73322;DHT22;61549;37.044;22.128;2022-12-11T04:03:55;18.90;74.90
73322;DHT22;61549;37.044;22.128;2022-12-11T04:06:21;18.70;76.50
73322;DHT22;61549;37.044;22.128;2022-12-11T04:08:47;18.80;76.40
73322;DHT22;61549;37.044;22.128;2022-12-11T04:11:13;19.10;76.00
73322;DHT22;61549;37.044;22.128;2022-12-11T04:13:57;19.40;75.10
73322;DHT22;61549;37.044;22.128;2022-12-11T04:16:41;19.40;75.00
73322;DHT22;61549;37.044;22.128;2022-12-11T04:19:08;19.60;74.80
73322;DHT22;61549;37.044;22.128;2022-12-11T04:21:53;19.60;73.90
73322;DHT22;61549;37.044;22.128;2022-12-11T04:24:37;19.60;73.80
73322;DHT22;61549;37.044;22.128;2022-12-11T04:27:03;19.50;74.20
73322;DHT22;61549;37.044;22.128;2022-12-11T04:29:29;19.50;74.70
73322;DHT22;61549;37.044;22.128;2022-12-11T04:31:55;19.50;74.80
73322;DHT22;61549;37.044;22.128;2022-12-11T04:34:21;19.60;75.00
73322;DHT22;61549;37.044;22.128;2022-12-11T04:36:47;19.60;75.10
73322;DHT22;61549;37.044;22.128;2022-12-11T04:39:13;19.60;74.80
73322;DHT22;61549;37.044;22.128;2022-12-11T04:41:39;19.60;74.90
73322;DHT22;61549;37.044;22.128;2022-12-11T04:44:06;19.70;75.10
73322;DHT22;61549;37.044;22.128;2022-12-11T04:46:32;19.70;74.90
73322;DHT22;61549;37.044;22.128;2022-12-11T04:48:58;19.70;74.80
73322;DHT22;61549;37.044;22.128;2022-12-11T04:51:25;19.70;74.50
73322;DHT22;61549;37.044;22.128;2022-12-11T04:53:51;19.70;73.70
73322;DHT22;61549;37.044;22.128;2022-12-11T04:56:18;19.60;75.20
73322;DHT22;61549;37.044;22.128;2022-12-11T04:58:46;19.60;74.70
73322;DHT22;61549;37.044;22.128;2022-12-11T05:01:21;19.50;74.00
73322;DHT22;61549;37.044;22.128;2022-12-11T05:03:47;19.40;74.60
73322;DHT22;61549;37.044;22.128;2022-12-11T05:06:13;19.30;75.60
73322;DHT22;61549;37.044;22.128;2022-12-11T05:08:40;19.10;76.70
73322;DHT22;61549;37.044;22.128;2022-12-11T05:11:09;19.00;77.20
73322;DHT22;61549;37.044;22.128;2022-12-11T05:13:36;19.10;77.50
73322;DHT22;61549;37.044;22.128;2022-12-11T05:16:07;19.20;77.00
73322;DHT22;61549;37.044;22.128;2022-12-11T05:18:33;19.20;75.60
73322;DHT22;61549;37.044;22.128;2022-12-11T05:21:01;19.10;76.30
73322;DHT22;61549;37.044;22.128;2022-12-11T05:23:28;19.10;73.90
73322;DHT22;61549;37.044;22.128;2022-12-11T05:26:05;19.00;72.50
73322;DHT22;61549;37.044;22.128;2022-12-11T05:28:34;19.00;73.10
73322;DHT22;61549;37.044;22.128;2022-12-11T05:31:04;19.10;72.40
73322;DHT22;61549;37.044;22.128;2022-12-11T05:33:30;19.10;71.20
73322;DHT22;61549;37.044;22.128;2022-12-11T05:35:56;19.20;70.50
73322;DHT22;61549;37.044;22.128;2022-12-11T05:38:23;19.30;69.10
73322;DHT22;61549;37.044;22.128;2022-12-11T05:41:03;19.40;70.00
73322;DHT22;61549;37.044;22.128;2022-12-11T05:43:32;19.60;70.80
73322;DHT22;61549;37.044;22.128;2022-12-11T05:46:10;19.70;71.50
73322;DHT22;61549;37.044;22.128;2022-12-11T05:48:37;19.80;72.20
73322;DHT22;61549;37.044;22.128;2022-12-11T05:51:04;19.70;72.60
73322;DHT22;61549;37.044;22.128;2022-12-11T05:53:31;19.80;73.00
73322;DHT22;61549;37.044;22.128;2022-12-11T05:56:05;19.70;73.10
73322;DHT22;61549;37.044;22.128;2022-12-11T05:58:32;19.80;73.70
73322;DHT22;61549;37.044;22.128;2022-12-11T06:00:59;19.80;73.30
73322;DHT22;61549;37.044;22.128;2022-12-11T06:03:25;19.70;73.20
73322;DHT22;61549;37.044;22.128;2022-12-11T06:05:51;19.80;73.30
73322;DHT22;61549;37.044;22.128;2022-12-11T06:08:17;19.70;73.10
73322;DHT22;61549;37.044;22.128;2022-12-11T06:10:47;19.70;73.50
73322;DHT22;61549;37.044;22.128;2022-12-11T06:13:14;19.70;73.60
73322;DHT22;61549;37.044;22.128;2022-12-11T06:15:41;19.70;74.00
73322;DHT22;61549;37.044;22.128;2022-12-11T06:18:06;19.60;74.40
73322;DHT22;61549;37.044;22.128;2022-12-11T06:20:33;19.70;74.60
73322;DHT22;61549;37.044;22.128;2022-12-11T06:23:00;19.70;74.70
73322;DHT22;61549;37.044;22.128;2022-12-11T06:25:27;19.70;74.70
73322;DHT22;61549;37.044;22.128;2022-12-11T06:27:53;19.80;74.90
73322;DHT22;61549;37.044;22.128;2022-12-11T06:30:19;19.80;74.90
73322;DHT22;61549;37.044;22.128;2022-12-11T06:32:45;19.90;75.20
73322;DHT22;61549;37.044;22.128;2022-12-11T06:35:11;19.80;75.50
73322;DHT22;61549;37.044;22.128;2022-12-11T06:37:37;19.90;75.70
73322;DHT22;61549;37.044;22.128;2022-12-11T06:40:05;19.90;75.80
73322;DHT22;61549;37.044;22.128;2022-12-11T06:42:31;19.90;76.00
73322;DHT22;61549;37.044;22.128;2022-12-11T06:44:57;19.90;76.10
73322;DHT22;61549;37.044;22.128;2022-12-11T06:47:28;20.00;76.20
73322;DHT22;61549;37.044;22.128;2022-12-11T06:49:54;20.00;76.10
73322;DHT22;61549;37.044;22.128;2022-12-11T06:52:22;20.00;76.00
73322;DHT22;61549;37.044;22.128;2022-12-11T06:54:48;20.00;75.90
73322;DHT22;61549;37.044;22.128;2022-12-11T06:57:15;19.90;76.10
73322;DHT22;61549;37.044;22.128;2022-12-11T06:59:41;19.90;74.70
73322;DHT22;61549;37.044;22.128;2022-12-11T07:02:17;19.90;75.50
73322;DHT22;61549;37.044;22.128;2022-12-11T07:04:43;20.00;75.80
73322;DHT22;61549;37.044;22.128;2022-12-11T07:07:09;20.10;76.30
73322;DHT22;61549;37.044;22.128;2022-12-11T07:09:37;20.20;76.40
73322;DHT22;61549;37.044;22.128;2022-12-11T07:12:03;20.10;76.60
73322;DHT22;61549;37.044;22.128;2022-12-11T07:14:30;20.10;74.90
73322;DHT22;61549;37.044;22.128;2022-12-11T07:16:56;19.90;74.10
73322;DHT22;61549;37.044;22.128;2022-12-11T07:19:22;19.80;74.40
73322;DHT22;61549;37.044;22.128;2022-12-11T07:21:48;19.80;75.40
73322;DHT22;61549;37.044;22.128;2022-12-11T07:24:15;19.90;75.60
73322;DHT22;61549;37.044;22.128;2022-12-11T07:26:41;20.00;75.60
73322;DHT22;61549;37.044;22.128;2022-12-11T07:29:07;20.10;75.50
73322;DHT22;61549;37.044;22.128;2022-12-11T07:31:33;20.30;76.50
73322;DHT22;61549;37.044;22.128;2022-12-11T07:34:02;20.30;76.40
73322;DHT22;61549;37.044;22.128;2022-12-11T07:36:29;20.40;75.60
73322;DHT22;61549;37.044;22.128;2022-12-11T07:38:55;20.40;75.80
73322;DHT22;61549;37.044;22.128;2022-12-11T07:41:22;20.50;75.70
73322;DHT22;61549;37.044;22.128;2022-12-11T07:43:48;20.60;75.30
73322;DHT22;61549;37.044;22.128;2022-12-11T07:46:16;20.70;75.60
73322;DHT22;61549;37.044;22.128;2022-12-11T07:48:45;20.70;73.50
73322;DHT22;61549;37.044;22.128;2022-12-11T07:51:14;20.70;73.20
73322;DHT22;61549;37.044;22.128;2022-12-11T07:53:41;20.60;72.90
73322;DHT22;61549;37.044;22.128;2022-12-11T07:56:07;20.60;73.70
73322;DHT22;61549;37.044;22.128;2022-12-11T07:58:33;20.60;74.30
73322;DHT22;61549;37.044;22.128;2022-12-11T08:00:59;20.60;74.20
73322;DHT22;61549;37.044;22.128;2022-12-11T08:03:25;20.60;73.90
73322;DHT22;61549;37.044;22.128;2022-12-11T08:05:51;20.60;74.20
73322;DHT22;61549;37.044;22.128;2022-12-11T08:08:18;20.60;74.70
73322;DHT22;61549;37.044;22.128;2022-12-11T08:10:44;20.50;75.80
73322;DHT22;61549;37.044;22.128;2022-12-11T08:13:10;20.50;76.30
73322;DHT22;61549;37.044;22.128;2022-12-11T08:15:37;20.50;75.70
73322;DHT22;61549;37.044;22.128;2022-12-11T08:18:04;20.40;76.40
73322;DHT22;61549;37.044;22.128;2022-12-11T08:20:30;20.40;76.80
73322;DHT22;61549;37.044;22.128;2022-12-11T08:22:56;20.50;76.60
73322;DHT22;61549;37.044;22.128;2022-12-11T08:25:22;20.50;77.50
73322;DHT22;61549;37.044;22.128;2022-12-11T08:27:48;20.50;77.60
73322;DHT22;61549;37.044;22.128;2022-12-11T08:30:15;20.50;78.10
73322;DHT22;61549;37.044;22.128;2022-12-11T08:32:41;20.60;78.30
73322;DHT22;61549;37.044;22.128;2022-12-11T08:35:07;20.60;77.20
73322;DHT22;61549;37.044;22.128;2022-12-11T08:37:33;20.50;78.00
73322;DHT22;61549;37.044;22.128;2022-12-11T08:39:59;20.40;79.00
73322;DHT22;61549;37.044;22.128;2022-12-11T08:42:25;20.30;79.00
73322;DHT22;61549;37.044;22.128;2022-12-11T08:44:51;20.40;79.30
73322;DHT22;61549;37.044;22.128;2022-12-11T08:47:17;20.50;79.10
73322;DHT22;61549;37.044;22.128;2022-12-11T08:49:43;20.40;78.70
73322;DHT22;61549;37.044;22.128;2022-12-11T08:52:08;20.40;79.40
73322;DHT22;61549;37.044;22.128;2022-12-11T08:54:36;20.30;79.30
73322;DHT22;61549;37.044;22.128;2022-12-11T08:57:03;20.30;80.30
73322;DHT22;61549;37.044;22.128;2022-12-11T08:59:31;20.30;80.00
73322;DHT22;61549;37.044;22.128;2022-12-11T09:01:57;20.50;80.00
73322;DHT22;61549;37.044;22.128;2022-12-11T09:04:23;20.40;80.30
73322;DHT22;61549;37.044;22.128;2022-12-11T09:06:49;20.40;80.50
73322;DHT22;61549;37.044;22.128;2022-12-11T09:09:15;20.40;80.60
73322;DHT22;61549;37.044;22.128;2022-12-11T09:11:41;20.40;80.30
73322;DHT22;61549;37.044;22.128;2022-12-11T09:14:07;20.50;79.90
73322;DHT22;61549;37.044;22.128;2022-12-11T09:16:34;20.70;79.20
73322;DHT22;61549;37.044;22.128;2022-12-11T09:19:02;20.80;78.60
73322;DHT22;61549;37.044;22.128;2022-12-11T09:21:29;20.90;77.90
73322;DHT22;61549;37.044;22.128;2022-12-11T09:23:57;20.90;77.20
73322;DHT22;61549;37.044;22.128;2022-12-11T09:26:25;20.90;76.60
73322;DHT22;61549;37.044;22.128;2022-12-11T09:28:51;20.90;76.70
73322;DHT22;61549;37.044;22.128;2022-12-11T09:31:26;21.00;76.50
73322;DHT22;61549;37.044;22.128;2022-12-11T09:33:59;21.00;76.70
73322;DHT22;61549;37.044;22.128;2022-12-11T09:36:26;21.00;75.60
73322;DHT22;61549;37.044;22.128;2022-12-11T09:38:52;21.20;73.50
73322;DHT22;61549;37.044;22.128;2022-12-11T09:46:33;21.30;73.70
73322;DHT22;61549;37.044;22.128;2022-12-11T09:49:02;21.40;73.40
73322;DHT22;61549;37.044;22.128;2022-12-11T09:51:41;21.50;73.20
73322;DHT22;61549;37.044;22.128;2022-12-11T09:54:10;21.60;72.40
73322;DHT22;61549;37.044;22.128;2022-12-11T09:56:55;21.60;71.00
73322;DHT22;61549;37.044;22.128;2022-12-11T09:59:40;21.60;70.40
73322;DHT22;61549;37.044;22.128;2022-12-11T10:07:32;21.70;69.30
73322;DHT22;61549;37.044;22.128;2022-12-11T10:17:56;21.80;67.10
73322;DHT22;61549;37.044;22.128;2022-12-11T10:20:29;21.80;68.20
73322;DHT22;61549;37.044;22.128;2022-12-11T10:26:13;21.90;66.80
73322;DHT22;61549;37.044;22.128;2022-12-11T10:28:40;21.80;64.80
73322;DHT22;61549;37.044;22.128;2022-12-11T10:34:29;21.60;65.40
73322;DHT22;61549;37.044;22.128;2022-12-11T10:36:37;21.50;64.30
73322;DHT22;61549;37.044;22.128;2022-12-11T10:39:15;21.40;64.50
73322;DHT22;61549;37.044;22.128;2022-12-11T10:41:45;21.50;64.30
73322;DHT22;61549;37.044;22.128;2022-12-11T10:44:31;21.50;63.60
73322;DHT22;61549;37.044;22.128;2022-12-11T10:47:12;21.50;64.00
73322;DHT22;61549;37.044;22.128;2022-12-11T10:49:43;21.50;64.10
73322;DHT22;61549;37.044;22.128;2022-12-11T10:52:24;21.50;64.10
73322;DHT22;61549;37.044;22.128;2022-12-11T10:54:59;21.60;63.00
73322;DHT22;61549;37.044;22.128;2022-12-11T10:57:32;21.70;63.10
73322;DHT22;61549;37.044;22.128;2022-12-11T10:59:59;21.60;63.30
73322;DHT22;61549;37.044;22.128;2022-12-11T11:02:37;21.60;64.10
73322;DHT22;61549;37.044;22.128;2022-12-11T11:05:14;21.50;65.10
73322;DHT22;61549;37.044;22.128;2022-12-11T11:07:40;21.60;65.30
73322;DHT22;61549;37.044;22.128;2022-12-11T11:10:16;21.40;66.00
73322;DHT22;61549;37.044;22.128;2022-12-11T11:12:48;21.20;66.80
73322;DHT22;61549;37.044;22.128;2022-12-11T11:15:23;21.00;68.00
73322;DHT22;61549;37.044;22.128;2022-12-11T11:17:52;21.00;68.50
73322;DHT22;61549;37.044;22.128;2022-12-11T11:20:24;21.10;68.30
73322;DHT22;61549;37.044;22.128;2022-12-11T11:22:53;20.80;69.20
73322;DHT22;61549;37.044;22.128;2022-12-11T11:25:22;20.80;70.00
73322;DHT22;61549;37.044;22.128;2022-12-11T11:31:30;21.20;68.00
73322;DHT22;61549;37.044;22.128;2022-12-11T11:34:05;21.60;65.90
73322;DHT22;61549;37.044;22.128;2022-12-11T11:36:34;21.60;65.70
73322;DHT22;61549;37.044;22.128;2022-12-11T11:39:25;21.50;65.40
73322;DHT22;61549;37.044;22.128;2022-12-11T11:42:09;21.60;65.20
73322;DHT22;61549;37.044;22.128;2022-12-11T11:44:41;21.60;64.00
73322;DHT22;61549;37.044;22.128;2022-12-11T11:52:29;21.30;63.40
73322;DHT22;61549;37.044;22.128;2022-12-11T12:01:26;21.60;68.30
73322;DHT22;61549;37.044;22.128;2022-12-11T12:03:52;21.70;67.30
73322;DHT22;61549;37.044;22.128;2022-12-11T12:12:13;22.10;69.60
73322;DHT22;61549;37.044;22.128;2022-12-11T12:17:52;22.00;66.90
73322;DHT22;61549;37.044;22.128;2022-12-11T12:20:58;22.00;65.60
73322;DHT22;61549;37.044;22.128;2022-12-11T12:23:43;21.60;65.00
73322;DHT22;61549;37.044;22.128;2022-12-11T12:26:28;21.60;65.40
73322;DHT22;61549;37.044;22.128;2022-12-11T12:29:51;21.50;66.00
73322;DHT22;61549;37.044;22.128;2022-12-11T12:32:08;21.10;67.50
73322;DHT22;61549;37.044;22.128;2022-12-11T12:45:30;19.80;70.80
73322;DHT22;61549;37.044;22.128;2022-12-11T12:47:58;19.60;71.20
73322;DHT22;61549;37.044;22.128;2022-12-11T12:50:27;19.50;71.90
73322;DHT22;61549;37.044;22.128;2022-12-11T12:52:54;19.90;73.30
73322;DHT22;61549;37.044;22.128;2022-12-11T12:55:27;20.40;69.60
73322;DHT22;61549;37.044;22.128;2022-12-11T12:58:04;21.00;68.60
73322;DHT22;61549;37.044;22.128;2022-12-11T13:03:22;21.80;63.60
73322;DHT22;61549;37.044;22.128;2022-12-11T13:06:03;21.90;63.60
73322;DHT22;61549;37.044;22.128;2022-12-11T13:08:39;21.90;62.90
73322;DHT22;61549;37.044;22.128;2022-12-11T13:11:08;22.00;64.80
73322;DHT22;61549;37.044;22.128;2022-12-11T13:13:41;21.90;64.70
73322;DHT22;61549;37.044;22.128;2022-12-11T13:18:44;21.40;64.30
73322;DHT22;61549;37.044;22.128;2022-12-11T13:21:31;21.10;64.10
73322;DHT22;61549;37.044;22.128;2022-12-11T13:26:43;20.90;64.20
73322;DHT22;61549;37.044;22.128;2022-12-11T13:29:36;20.80;63.70
73322;DHT22;61549;37.044;22.128;2022-12-11T13:34:39;20.80;64.70
73322;DHT22;61549;37.044;22.128;2022-12-11T13:37:15;20.80;65.90
73322;DHT22;61549;37.044;22.128;2022-12-11T13:39:46;20.50;67.40
73322;DHT22;61549;37.044;22.128;2022-12-11T13:42:27;20.60;69.80
73322;DHT22;61549;37.044;22.128;2022-12-11T13:44:55;20.50;69.60
73322;DHT22;61549;37.044;22.128;2022-12-11T13:47:24;20.40;69.50
73322;DHT22;61549;37.044;22.128;2022-12-11T13:50:01;20.50;69.00
73322;DHT22;61549;37.044;22.128;2022-12-11T13:52:29;20.50;68.90
73322;DHT22;61549;37.044;22.128;2022-12-11T13:54:56;20.50;69.50
73322;DHT22;61549;37.044;22.128;2022-12-11T13:57:26;20.50;69.10
73322;DHT22;61549;37.044;22.128;2022-12-11T13:59:56;20.40;69.70
73322;DHT22;61549;37.044;22.128;2022-12-11T14:05:04;20.30;68.50
73322;DHT22;61549;37.044;22.128;2022-12-11T14:07:35;20.30;68.00
73322;DHT22;61549;37.044;22.128;2022-12-11T14:10:06;20.30;69.40
73322;DHT22;61549;37.044;22.128;2022-12-11T14:12:34;20.30;70.90
73322;DHT22;61549;37.044;22.128;2022-12-11T14:15:02;20.40;69.60
73322;DHT22;61549;37.044;22.128;2022-12-11T14:17:33;20.30;66.40
73322;DHT22;61549;37.044;22.128;2022-12-11T14:20:02;20.30;69.70
73322;DHT22;61549;37.044;22.128;2022-12-11T14:22:30;20.30;70.70
73322;DHT22;61549;37.044;22.128;2022-12-11T14:25:01;20.30;70.90
73322;DHT22;61549;37.044;22.128;2022-12-11T14:28:01;20.30;69.40
73322;DHT22;61549;37.044;22.128;2022-12-11T14:30:30;20.20;68.10
73322;DHT22;61549;37.044;22.128;2022-12-11T14:33:00;20.10;68.30
73322;DHT22;61549;37.044;22.128;2022-12-11T14:35:31;20.10;68.80
73322;DHT22;61549;37.044;22.128;2022-12-11T14:38:00;20.10;68.10
73322;DHT22;61549;37.044;22.128;2022-12-11T14:40:30;20.00;67.50
73322;DHT22;61549;37.044;22.128;2022-12-11T14:43:06;20.00;67.30
73322;DHT22;61549;37.044;22.128;2022-12-11T14:45:38;19.90;66.00
73322;DHT22;61549;37.044;22.128;2022-12-11T14:48:27;19.80;66.50
73322;DHT22;61549;37.044;22.128;2022-12-11T14:50:57;19.80;66.10
73322;DHT22;61549;37.044;22.128;2022-12-11T14:53:37;19.70;65.70
73322;DHT22;61549;37.044;22.128;2022-12-11T14:56:07;19.60;64.80
73322;DHT22;61549;37.044;22.128;2022-12-11T14:58:42;19.60;65.20
73322;DHT22;61549;37.044;22.128;2022-12-11T15:01:28;19.50;65.40
73322;DHT22;61549;37.044;22.128;2022-12-11T15:06:45;19.40;64.70
73322;DHT22;61549;37.044;22.128;2022-12-11T15:11:44;19.40;64.40
73322;DHT22;61549;37.044;22.128;2022-12-11T15:14:13;19.30;63.20
73322;DHT22;61549;37.044;22.128;2022-12-11T15:16:40;19.30;62.80
73322;DHT22;61549;37.044;22.128;2022-12-11T15:19:15;19.20;62.50
73322;DHT22;61549;37.044;22.128;2022-12-11T15:21:42;19.20;62.20
73322;DHT22;61549;37.044;22.128;2022-12-11T15:24:33;19.10;61.30
73322;DHT22;61549;37.044;22.128;2022-12-11T15:27:00;19.10;63.20
73322;DHT22;61549;37.044;22.128;2022-12-11T15:34:35;19.20;64.00
73322;DHT22;61549;37.044;22.128;2022-12-11T15:37:35;19.20;64.40
73322;DHT22;61549;37.044;22.128;2022-12-11T15:40:03;19.30;63.90
73322;DHT22;61549;37.044;22.128;2022-12-11T15:42:40;19.30;65.50
73322;DHT22;61549;37.044;22.128;2022-12-11T15:45:18;19.30;65.70
73322;DHT22;61549;37.044;22.128;2022-12-11T15:47:45;19.30;66.20
73322;DHT22;61549;37.044;22.128;2022-12-11T15:50:21;19.20;66.50
73322;DHT22;61549;37.044;22.128;2022-12-11T15:52:49;19.20;66.70
73322;DHT22;61549;37.044;22.128;2022-12-11T15:55:15;19.10;67.10
73322;DHT22;61549;37.044;22.128;2022-12-11T15:57:46;19.10;66.90
73322;DHT22;61549;37.044;22.128;2022-12-11T16:00:14;19.10;67.60
73322;DHT22;61549;37.044;22.128;2022-12-11T16:02:40;19.10;67.90
73322;DHT22;61549;37.044;22.128;2022-12-11T16:05:08;19.10;68.00
73322;DHT22;61549;37.044;22.128;2022-12-11T16:07:34;19.10;68.00
73322;DHT22;61549;37.044;22.128;2022-12-11T16:10:01;19.10;67.70
73322;DHT22;61549;37.044;22.128;2022-12-11T16:12:26;19.10;67.60
73322;DHT22;61549;37.044;22.128;2022-12-11T16:14:52;19.10;68.00
73322;DHT22;61549;37.044;22.128;2022-12-11T16:17:18;19.20;68.00
73322;DHT22;61549;37.044;22.128;2022-12-11T16:19:44;19.30;68.00
73322;DHT22;61549;37.044;22.128;2022-12-11T16:22:12;19.40;67.70
73322;DHT22;61549;37.044;22.128;2022-12-11T16:24:38;19.40;67.80
73322;DHT22;61549;37.044;22.128;2022-12-11T16:27:05;19.40;68.10
73322;DHT22;61549;37.044;22.128;2022-12-11T16:29:35;19.40;68.50
73322;DHT22;61549;37.044;22.128;2022-12-11T16:32:02;19.30;68.70
73322;DHT22;61549;37.044;22.128;2022-12-11T16:34:31;19.30;69.00
73322;DHT22;61549;37.044;22.128;2022-12-11T16:37:01;19.20;68.60
73322;DHT22;61549;37.044;22.128;2022-12-11T16:39:27;19.20;67.80
73322;DHT22;61549;37.044;22.128;2022-12-11T16:41:53;19.20;67.50
73322;DHT22;61549;37.044;22.128;2022-12-11T16:44:20;19.20;67.60
73322;DHT22;61549;37.044;22.128;2022-12-11T16:46:47;19.20;67.50
73322;DHT22;61549;37.044;22.128;2022-12-11T16:49:14;19.20;67.80
73322;DHT22;61549;37.044;22.128;2022-12-11T16:51:41;19.20;67.90
73322;DHT22;61549;37.044;22.128;2022-12-11T16:54:08;19.20;68.60
73322;DHT22;61549;37.044;22.128;2022-12-11T16:56:34;19.20;69.10
73322;DHT22;61549;37.044;22.128;2022-12-11T16:59:00;19.10;69.10
73322;DHT22;61549;37.044;22.128;2022-12-11T17:01:26;19.10;69.30
73322;DHT22;61549;37.044;22.128;2022-12-11T17:03:52;19.10;69.20
73322;DHT22;61549;37.044;22.128;2022-12-11T17:06:19;19.10;69.10